createdAt,value
2018-09-09T00:00:36.811Z,92.74
2018-09-09T00:01:37.036Z,92.83
2018-09-09T00:02:37.266Z,92.74
2018-09-09T00:03:37.493Z,93.12
2018-09-09T00:04:37.733Z,93.02
2018-09-09T00:05:37.948Z,92.93
2018-09-09T00:06:38.176Z,92.93
2018-09-09T00:07:38.407Z,92.93
2018-09-09T00:08:38.732Z,93.02
2018-09-09T00:09:38.911Z,92.74
2018-09-09T00:10:39.134Z,92.74
2018-09-09T00:11:39.362Z,93.02
2018-09-09T00:12:39.590Z,93.02
2018-09-09T00:13:39.818Z,93.21
2018-09-09T00:14:40.054Z,93.21
2018-09-09T00:15:40.266Z,93.02
2018-09-09T00:16:40.494Z,93.02
2018-09-09T00:17:40.720Z,92.93
2018-09-09T00:18:40.947Z,92.83
2018-09-09T00:19:41.175Z,93.02
2018-09-09T00:20:41.410Z,93.21
2018-09-09T00:21:41.636Z,93.31
2018-09-09T00:22:41.862Z,92.83
2018-09-09T00:23:42.090Z,93.02
2018-09-09T00:24:42.318Z,92.69
2018-09-09T00:25:42.545Z,93.07
2018-09-09T00:26:42.773Z,93.26
2018-09-09T00:27:43.057Z,92.83
2018-09-09T00:28:43.266Z,92.79
2018-09-09T00:29:43.500Z,93.31
2018-09-09T00:30:43.773Z,92.45
2018-09-09T00:31:43.940Z,93.21
2018-09-09T00:32:44.166Z,93.21
2018-09-09T00:33:44.393Z,92.41
2018-09-09T00:34:44.700Z,92.60
2018-09-09T00:35:44.838Z,92.79
2018-09-09T00:36:45.076Z,92.41
2018-09-09T00:37:45.288Z,92.88
2018-09-09T00:38:45.510Z,93.07
2018-09-09T00:39:45.738Z,93.26
2018-09-09T00:40:45.961Z,92.97
2018-09-09T00:41:46.193Z,92.79
2018-09-09T00:42:46.418Z,93.55
2018-09-09T00:43:46.652Z,92.88
2018-09-09T00:44:46.861Z,92.69
2018-09-09T00:45:47.092Z,92.79
2018-09-09T00:46:47.319Z,93.17
2018-09-09T00:47:47.546Z,92.97
2018-09-09T00:48:47.776Z,92.69
2018-09-09T00:49:48.008Z,92.97
2018-09-09T00:50:48.234Z,93.12
2018-09-09T00:51:48.474Z,93.79
2018-09-09T00:52:48.693Z,92.79
2018-09-09T00:53:48.919Z,92.97
2018-09-09T00:54:49.145Z,92.79
2018-09-09T00:55:49.383Z,93.07
2018-09-09T00:56:49.603Z,92.97
2018-09-09T00:57:49.862Z,92.97
2018-09-09T00:58:50.058Z,93.55
2018-09-09T00:59:50.285Z,92.97
2018-09-09T01:00:50.510Z,93.65
2018-09-09T01:01:50.738Z,92.97
2018-09-09T01:02:50.966Z,93.65
2018-09-09T01:03:51.193Z,93.65
2018-09-09T01:04:51.419Z,93.26
2018-09-09T01:05:51.647Z,92.93
2018-09-09T01:06:51.875Z,93.70
2018-09-09T01:07:52.101Z,93.12
2018-09-09T01:08:52.328Z,93.70
2018-09-09T01:09:52.552Z,93.70
2018-09-09T01:10:52.782Z,93.02
2018-09-09T01:11:53.013Z,93.60
2018-09-09T01:12:53.237Z,93.79
2018-09-09T01:13:53.463Z,93.26
2018-09-09T01:14:53.689Z,93.74
2018-09-09T01:15:53.924Z,93.02
2018-09-09T01:16:54.149Z,93.60
2018-09-09T01:17:54.380Z,93.79
2018-09-09T01:18:54.604Z,93.60
2018-09-09T01:19:54.831Z,93.88
2018-09-09T01:20:55.061Z,93.70
2018-09-09T01:21:55.283Z,93.50
2018-09-09T01:22:55.506Z,93.79
2018-09-09T01:23:55.743Z,93.88
2018-09-09T01:24:56.011Z,93.79
2018-09-09T01:25:56.190Z,93.26
2018-09-09T01:26:56.421Z,93.74
2018-09-09T01:27:56.644Z,93.65
2018-09-09T01:28:56.870Z,93.74
2018-09-09T01:29:57.096Z,92.69
2018-09-09T01:30:57.324Z,93.46
2018-09-09T01:31:57.548Z,93.46
2018-09-09T01:32:57.905Z,93.26
2018-09-09T01:33:58.061Z,93.55
2018-09-09T01:34:58.286Z,94.36
2018-09-09T01:35:58.510Z,94.07
2018-09-09T01:36:58.737Z,93.70
2018-09-09T01:37:58.971Z,93.70
2018-09-09T01:38:59.194Z,93.70
2018-09-09T01:39:59.414Z,93.79
2018-09-09T01:40:59.649Z,93.70
2018-09-09T01:41:59.879Z,93.98
2018-09-09T01:43:00.106Z,93.79
2018-09-09T01:44:00.331Z,93.60
2018-09-09T01:45:00.554Z,93.60
2018-09-09T01:46:00.782Z,93.31
2018-09-09T01:47:01.019Z,93.50
2018-09-09T01:48:01.223Z,93.79
2018-09-09T01:49:01.450Z,93.70
2018-09-09T01:50:01.675Z,93.79
2018-09-09T01:51:01.905Z,93.79
2018-09-09T01:52:02.129Z,93.79
2018-09-09T01:53:02.363Z,93.79
2018-09-09T01:54:02.587Z,93.36
2018-09-09T01:55:02.812Z,93.74
2018-09-09T01:56:03.041Z,93.55
2018-09-09T01:57:03.267Z,94.27
2018-09-09T01:58:03.495Z,93.65
2018-09-09T01:59:03.722Z,93.74
2018-09-09T02:00:03.953Z,93.26
2018-09-09T02:01:04.178Z,92.97
2018-09-09T02:02:04.404Z,93.36
2018-09-09T02:03:04.634Z,94.03
2018-09-09T02:04:04.860Z,93.65
2018-09-09T02:05:05.090Z,94.12
2018-09-09T02:06:05.316Z,94.12
2018-09-09T02:07:05.542Z,94.31
2018-09-09T02:08:05.769Z,94.03
2018-09-09T02:09:05.996Z,93.46
2018-09-09T02:10:06.224Z,93.46
2018-09-09T02:11:06.450Z,93.55
2018-09-09T02:12:06.679Z,93.26
2018-09-09T02:13:06.906Z,94.31
2018-09-09T02:14:07.138Z,93.55
2018-09-09T02:15:07.366Z,93.93
2018-09-09T02:16:07.593Z,94.31
2018-09-09T02:17:07.820Z,93.36
2018-09-09T02:18:08.047Z,94.12
2018-09-09T02:19:08.274Z,93.93
2018-09-09T02:20:08.499Z,94.22
2018-09-09T02:21:08.728Z,94.12
2018-09-09T02:22:08.956Z,94.03
2018-09-09T02:23:09.183Z,93.55
2018-09-09T02:24:09.418Z,94.03
2018-09-09T02:25:09.638Z,94.12
2018-09-09T02:26:09.865Z,93.17
2018-09-09T02:27:10.093Z,93.74
2018-09-09T02:28:10.322Z,93.93
2018-09-09T02:29:10.550Z,93.93
2018-09-09T02:30:10.777Z,94.03
2018-09-09T02:31:11.006Z,94.03
2018-09-09T02:32:11.234Z,94.31
2018-09-09T02:33:11.458Z,93.93
2018-09-09T02:34:11.687Z,93.55
2018-09-09T02:35:11.917Z,94.12
2018-09-09T02:36:12.144Z,93.93
2018-09-09T02:37:12.372Z,93.93
2018-09-09T02:38:12.595Z,93.84
2018-09-09T02:39:12.824Z,93.70
2018-09-09T02:40:13.052Z,93.93
2018-09-09T02:41:13.286Z,93.60
2018-09-09T02:42:13.515Z,93.51
2018-09-09T02:43:13.733Z,93.93
2018-09-09T02:44:13.958Z,94.03
2018-09-09T02:45:14.185Z,93.88
2018-09-09T02:46:14.412Z,93.79
2018-09-09T02:47:14.640Z,94.07
2018-09-09T02:48:14.864Z,93.79
2018-09-09T02:49:15.093Z,93.79
2018-09-09T02:50:15.320Z,94.07
2018-09-09T02:51:15.544Z,94.07
2018-09-09T02:52:15.769Z,93.98
2018-09-09T02:53:15.996Z,94.07
2018-09-09T02:54:16.224Z,93.60
2018-09-09T02:55:16.452Z,93.98
2018-09-09T02:56:16.680Z,93.88
2018-09-09T02:57:16.904Z,93.98
2018-09-09T02:58:17.136Z,93.79
2018-09-09T02:59:17.367Z,93.79
2018-09-09T03:00:17.588Z,93.88
2018-09-09T03:01:17.816Z,93.79
2018-09-09T03:02:18.039Z,93.70
2018-09-09T03:03:18.264Z,93.84
2018-09-09T03:04:18.494Z,93.46
2018-09-09T03:05:18.721Z,93.08
2018-09-09T03:06:18.952Z,93.65
2018-09-09T03:07:19.173Z,93.46
2018-09-09T03:08:19.403Z,93.74
2018-09-09T03:09:19.630Z,93.74
2018-09-09T03:10:19.858Z,93.46
2018-09-09T03:11:20.087Z,92.88
2018-09-09T03:12:20.312Z,92.98
2018-09-09T03:13:20.534Z,92.88
2018-09-09T03:14:20.758Z,92.88
2018-09-09T03:15:20.987Z,93.55
2018-09-09T03:16:21.211Z,92.79
2018-09-09T03:17:21.437Z,93.46
2018-09-09T03:18:21.670Z,93.46
2018-09-09T03:19:21.876Z,93.08
2018-09-09T03:20:22.109Z,92.79
2018-09-09T03:21:22.331Z,92.69
2018-09-09T03:22:22.558Z,93.36
2018-09-09T03:23:22.785Z,92.41
2018-09-09T03:24:23.010Z,92.41
2018-09-09T03:25:23.239Z,92.41
2018-09-09T03:26:23.464Z,92.98
2018-09-09T03:27:23.691Z,93.55
2018-09-09T03:28:23.946Z,92.88
2018-09-09T03:29:24.144Z,93.08
2018-09-09T03:30:24.373Z,92.79
2018-09-09T03:31:24.601Z,92.74
2018-09-09T03:32:24.828Z,93.79
2018-09-09T03:33:25.052Z,93.12
2018-09-09T03:34:25.279Z,93.31
2018-09-09T03:35:25.506Z,93.60
2018-09-09T03:36:25.731Z,93.60
2018-09-09T03:37:25.960Z,93.12
2018-09-09T03:38:26.186Z,92.93
2018-09-09T03:39:26.411Z,93.12
2018-09-09T03:40:26.647Z,93.31
2018-09-09T03:41:26.869Z,93.31
2018-09-09T03:42:27.095Z,93.88
2018-09-09T03:43:27.323Z,93.31
2018-09-09T03:44:27.555Z,92.79
2018-09-09T03:45:27.781Z,93.12
2018-09-09T03:46:28.005Z,92.69
2018-09-09T03:47:28.232Z,92.79
2018-09-09T03:48:28.479Z,93.12
2018-09-09T03:49:28.698Z,92.79
2018-09-09T03:50:28.925Z,92.60
2018-09-09T03:51:29.159Z,93.55
2018-09-09T03:52:29.383Z,93.08
2018-09-09T03:53:29.632Z,92.93
2018-09-09T03:54:29.879Z,93.60
2018-09-09T03:55:30.106Z,93.31
2018-09-09T03:56:30.330Z,92.74
2018-09-09T03:57:30.567Z,93.12
2018-09-09T03:58:30.793Z,92.74
2018-09-09T03:59:31.021Z,93.08
2018-09-09T04:00:31.251Z,92.93
2018-09-09T04:01:31.471Z,92.74
2018-09-09T04:02:31.699Z,93.51
2018-09-09T04:03:31.925Z,92.93
2018-09-09T04:04:32.156Z,93.88
2018-09-09T04:05:32.380Z,93.22
2018-09-09T04:06:32.608Z,93.12
2018-09-09T04:07:32.832Z,93.31
2018-09-09T04:08:33.074Z,93.22
2018-09-09T04:09:33.302Z,92.93
2018-09-09T04:10:33.529Z,92.83
2018-09-09T04:11:33.751Z,93.41
2018-09-09T04:12:33.979Z,92.83
2018-09-09T04:13:34.205Z,92.93
2018-09-09T04:14:34.432Z,93.12
2018-09-09T04:15:34.672Z,93.12
2018-09-09T04:16:34.890Z,92.83
2018-09-09T04:17:35.120Z,93.22
2018-09-09T04:18:35.346Z,93.41
2018-09-09T04:19:35.573Z,93.12
2018-09-09T04:20:35.799Z,93.12
2018-09-09T04:21:36.027Z,92.93
2018-09-09T04:22:36.258Z,93.31
2018-09-09T04:23:36.485Z,93.12
2018-09-09T04:24:36.713Z,93.41
2018-09-09T04:25:36.939Z,93.41
2018-09-09T04:26:37.166Z,93.51
2018-09-09T04:27:37.393Z,93.22
2018-09-09T04:28:37.621Z,93.12
2018-09-09T04:29:37.847Z,93.12
2018-09-09T04:30:38.072Z,93.02
2018-09-09T04:31:38.299Z,93.02
2018-09-09T04:32:38.525Z,93.12
2018-09-09T04:33:38.752Z,93.12
2018-09-09T04:34:38.978Z,93.41
2018-09-09T04:35:39.206Z,93.31
2018-09-09T04:36:39.432Z,92.93
2018-09-09T04:37:39.659Z,93.98
2018-09-09T04:38:39.886Z,93.31
2018-09-09T04:39:40.115Z,93.31
2018-09-09T04:40:40.340Z,93.12
2018-09-09T04:41:40.567Z,93.41
2018-09-09T04:42:40.798Z,93.41
2018-09-09T04:43:41.030Z,93.31
2018-09-09T04:44:41.265Z,93.31
2018-09-09T04:45:41.491Z,93.60
2018-09-09T04:46:41.758Z,93.41
2018-09-09T04:47:41.984Z,93.51
2018-09-09T04:48:42.212Z,93.31
2018-09-09T04:49:42.436Z,93.51
2018-09-09T04:50:42.664Z,93.22
2018-09-09T04:51:42.890Z,93.02
2018-09-09T04:52:43.116Z,92.74
2018-09-09T04:53:43.344Z,92.12
2018-09-09T04:54:43.574Z,92.41
2018-09-09T04:55:43.798Z,92.69
2018-09-09T04:56:44.025Z,92.88
2018-09-09T04:57:44.252Z,92.50
2018-09-09T04:58:44.485Z,92.79
2018-09-09T04:59:44.715Z,92.55
2018-09-09T05:00:44.942Z,92.32
2018-09-09T05:01:45.169Z,92.65
2018-09-09T05:02:45.398Z,92.65
2018-09-09T05:03:45.630Z,92.41
2018-09-09T05:04:45.850Z,92.55
2018-09-09T05:05:46.075Z,92.60
2018-09-09T05:06:46.305Z,92.69
2018-09-09T05:07:46.523Z,92.65
2018-09-09T05:08:46.756Z,92.22
2018-09-09T05:09:46.980Z,92.32
2018-09-09T05:10:47.208Z,92.60
2018-09-09T05:11:47.433Z,92.74
2018-09-09T05:12:47.660Z,92.55
2018-09-09T05:13:47.889Z,92.74
2018-09-09T05:14:48.115Z,92.65
2018-09-09T05:15:48.342Z,92.36
2018-09-09T05:16:48.575Z,92.46
2018-09-09T05:17:48.799Z,92.55
2018-09-09T05:18:49.030Z,92.36
2018-09-09T05:19:49.257Z,93.02
2018-09-09T05:20:49.483Z,92.46
2018-09-09T05:21:49.712Z,92.46
2018-09-09T05:22:49.937Z,92.74
2018-09-09T05:23:50.171Z,92.83
2018-09-09T05:24:50.396Z,93.55
2018-09-09T05:25:50.622Z,93.17
2018-09-09T05:26:50.849Z,92.97
2018-09-09T05:27:51.074Z,93.55
2018-09-09T05:28:51.304Z,93.46
2018-09-09T05:29:51.531Z,92.88
2018-09-09T05:30:51.757Z,92.60
2018-09-09T05:31:51.988Z,93.31
2018-09-09T05:32:52.214Z,93.12
2018-09-09T05:33:52.441Z,92.83
2018-09-09T05:34:52.668Z,93.31
2018-09-09T05:35:52.893Z,93.02
2018-09-09T05:36:53.122Z,93.22
2018-09-09T05:37:53.345Z,92.79
2018-09-09T05:38:53.574Z,92.26
2018-09-09T05:39:53.800Z,92.41
2018-09-09T05:40:54.028Z,92.31
2018-09-09T05:41:54.254Z,93.46
2018-09-09T05:42:54.481Z,93.17
2018-09-09T05:43:54.708Z,93.26
2018-09-09T05:44:54.941Z,92.79
2018-09-09T05:45:55.163Z,92.97
2018-09-09T05:46:55.390Z,93.17
2018-09-09T05:47:55.619Z,93.50
2018-09-09T05:48:55.842Z,92.60
2018-09-09T05:49:56.071Z,92.93
2018-09-09T05:50:56.297Z,92.83
2018-09-09T05:51:56.531Z,93.31
2018-09-09T05:52:56.753Z,92.83
2018-09-09T05:53:57.077Z,93.12
2018-09-09T05:54:57.209Z,92.45
2018-09-09T05:55:57.435Z,93.70
2018-09-09T05:56:57.662Z,93.02
2018-09-09T05:57:57.892Z,93.31
2018-09-09T05:58:58.117Z,93.31
2018-09-09T05:59:58.344Z,92.97
2018-09-09T06:00:58.560Z,93.55
2018-09-09T06:01:58.803Z,94.02
2018-09-09T06:02:59.032Z,93.74
2018-09-09T06:03:59.266Z,93.07
2018-09-09T06:04:59.488Z,93.45
2018-09-09T06:05:59.714Z,93.98
2018-09-09T06:06:59.945Z,92.79
2018-09-09T06:08:00.173Z,93.21
2018-09-09T06:09:00.400Z,93.21
2018-09-09T06:10:00.626Z,93.31
2018-09-09T06:11:00.855Z,93.31
2018-09-09T06:12:01.086Z,93.31
2018-09-09T06:13:01.312Z,93.40
2018-09-09T06:14:01.541Z,93.31
2018-09-09T06:15:01.769Z,93.02
2018-09-09T06:16:01.996Z,93.12
2018-09-09T06:17:02.226Z,93.12
2018-09-09T06:18:02.454Z,93.50
2018-09-09T06:19:02.681Z,93.12
2018-09-09T06:20:02.910Z,93.31
2018-09-09T06:21:03.137Z,93.31
2018-09-09T06:22:03.366Z,93.40
2018-09-09T06:23:03.594Z,93.40
2018-09-09T06:24:03.823Z,93.40
2018-09-09T06:25:04.048Z,93.31
2018-09-09T06:26:04.275Z,93.31
2018-09-09T06:27:04.503Z,93.55
2018-09-09T06:28:04.729Z,93.07
2018-09-09T06:29:04.958Z,93.35
2018-09-09T06:30:05.187Z,93.40
2018-09-09T06:31:05.418Z,93.59
2018-09-09T06:32:05.647Z,92.25
2018-09-09T06:33:05.874Z,92.58
2018-09-09T06:34:06.104Z,92.73
2018-09-09T06:35:06.328Z,92.87
2018-09-09T06:36:06.559Z,92.44
2018-09-09T06:37:06.785Z,91.49
2018-09-09T06:38:07.022Z,91.77
2018-09-09T06:39:07.279Z,91.72
2018-09-09T06:40:07.499Z,91.34
2018-09-09T06:41:07.709Z,92.44
2018-09-09T06:42:07.956Z,91.96
2018-09-09T06:43:08.188Z,91.63
2018-09-09T06:44:08.421Z,91.34
2018-09-09T06:45:08.648Z,91.34
2018-09-09T06:46:08.876Z,91.24
2018-09-09T06:47:09.105Z,90.04
2018-09-09T06:48:09.335Z,89.65
2018-09-09T06:49:09.562Z,89.75
2018-09-09T06:50:09.790Z,90.14
2018-09-09T06:51:10.021Z,90.14
2018-09-09T06:52:10.251Z,90.37
2018-09-09T06:53:10.477Z,89.12
2018-09-09T06:54:10.709Z,88.74
2018-09-09T06:55:10.937Z,89.70
2018-09-09T06:56:11.166Z,89.12
2018-09-09T06:57:11.396Z,88.93
2018-09-09T06:58:11.629Z,89.12
2018-09-09T06:59:11.854Z,88.79
2018-09-09T07:00:12.086Z,88.40
2018-09-09T07:01:12.314Z,88.11
2018-09-09T07:02:12.603Z,87.78
2018-09-09T07:03:12.776Z,88.21
2018-09-09T07:04:13.006Z,87.54
2018-09-09T07:05:13.235Z,87.44
2018-09-09T07:06:13.465Z,87.44
2018-09-09T07:07:13.694Z,85.75
2018-09-09T07:08:13.924Z,85.95
2018-09-09T07:09:14.153Z,85.95
2018-09-09T07:10:14.386Z,84.89
2018-09-09T07:11:14.723Z,85.37
2018-09-09T07:12:14.849Z,84.95
2018-09-09T07:13:15.077Z,84.89
2018-09-09T07:14:15.307Z,85.08
2018-09-09T07:15:15.537Z,85.37
2018-09-09T07:16:15.768Z,84.89
2018-09-09T07:17:15.997Z,84.89
2018-09-09T07:18:16.227Z,85.18
2018-09-09T07:19:16.531Z,85.08
2018-09-09T07:20:16.694Z,84.12
2018-09-09T07:21:16.933Z,84.12
2018-09-09T07:22:17.166Z,83.93
2018-09-09T07:23:17.395Z,84.31
2018-09-09T07:24:17.624Z,82.87
2018-09-09T07:25:17.855Z,81.57
2018-09-09T07:26:18.089Z,81.63
2018-09-09T07:27:18.322Z,82.40
2018-09-09T07:28:18.530Z,82.78
2018-09-09T07:29:18.762Z,84.41
2018-09-09T07:30:18.993Z,85.14
2018-09-09T07:31:19.223Z,85.04
2018-09-09T07:32:19.454Z,84.80
2018-09-09T07:33:19.711Z,82.78
2018-09-09T07:34:20.020Z,83.07
2018-09-09T07:35:20.143Z,82.87
2018-09-09T07:36:20.373Z,81.72
2018-09-09T07:37:20.615Z,82.59
2018-09-09T07:38:20.837Z,83.80
2018-09-09T07:39:21.065Z,83.64
2018-09-09T07:40:21.308Z,84.08
2018-09-09T07:41:21.540Z,83.84
2018-09-09T07:42:21.770Z,82.87
2018-09-09T07:43:22.002Z,81.82
2018-09-09T07:44:22.232Z,80.96
2018-09-09T07:45:22.464Z,80.38
2018-09-09T07:46:22.736Z,81.63
2018-09-09T07:47:22.929Z,81.86
2018-09-09T07:48:23.157Z,82.43
2018-09-09T07:49:23.388Z,83.59
2018-09-09T07:50:23.610Z,83.01
2018-09-09T07:51:23.853Z,81.48
2018-09-09T07:52:24.085Z,81.57
2018-09-09T07:53:24.314Z,81.57
2018-09-09T07:54:24.548Z,81.76
2018-09-09T07:55:24.774Z,82.63
2018-09-09T07:56:25.006Z,81.67
2018-09-09T07:57:25.285Z,80.90
2018-09-09T07:58:25.492Z,79.65
2018-09-09T07:59:25.724Z,79.55
2018-09-09T08:00:26.000Z,79.94
2018-09-09T08:01:26.183Z,81.76
2018-09-09T08:02:26.416Z,80.71
2018-09-09T08:03:26.643Z,79.88
2018-09-09T08:04:26.875Z,80.94
2018-09-09T08:05:27.107Z,81.71
2018-09-09T08:06:27.338Z,82.09
2018-09-09T08:07:27.575Z,80.75
2018-09-09T08:08:27.808Z,81.13
2018-09-09T08:09:28.037Z,81.81
2018-09-09T08:10:28.267Z,81.23
2018-09-09T08:11:28.496Z,80.84
2018-09-09T08:12:28.727Z,80.65
2018-09-09T08:13:28.985Z,80.84
2018-09-09T08:14:29.181Z,80.65
2018-09-09T08:15:29.407Z,79.11
2018-09-09T08:16:29.627Z,79.21
2018-09-09T08:17:29.858Z,80.75
2018-09-09T08:18:30.154Z,80.69
2018-09-09T08:19:30.319Z,80.60
2018-09-09T08:20:30.552Z,80.11
2018-09-09T08:21:30.787Z,80.60
2018-09-09T08:22:31.024Z,79.53
2018-09-09T08:23:31.294Z,79.92
2018-09-09T08:24:31.491Z,79.73
2018-09-09T08:25:31.720Z,79.63
2018-09-09T08:26:31.950Z,78.67
2018-09-09T08:27:32.217Z,77.04
2018-09-09T08:28:32.452Z,78.03
2018-09-09T08:29:32.693Z,76.40
2018-09-09T08:30:32.929Z,76.98
2018-09-09T08:31:33.159Z,76.34
2018-09-09T08:32:33.396Z,77.11
2018-09-09T08:33:33.627Z,76.73
2018-09-09T08:34:33.859Z,75.32
2018-09-09T08:35:34.090Z,74.93
2018-09-09T08:36:34.321Z,74.07
2018-09-09T08:37:34.557Z,72.43
2018-09-09T08:38:34.787Z,71.50
2018-09-09T08:39:35.018Z,70.92
2018-09-09T08:40:35.250Z,69.96
2018-09-09T08:41:35.481Z,69.67
2018-09-09T08:42:35.712Z,68.52
2018-09-09T08:43:35.945Z,66.30
2018-09-09T08:44:36.177Z,67.94
2018-09-09T08:45:36.485Z,67.07
2018-09-09T08:46:36.639Z,66.39
2018-09-09T08:47:36.873Z,65.72
2018-09-09T08:48:37.103Z,65.47
2018-09-09T08:49:37.351Z,64.31
2018-09-09T08:50:37.586Z,63.44
2018-09-09T08:51:37.821Z,63.24
2018-09-09T08:52:38.060Z,63.44
2018-09-09T08:53:38.307Z,64.11
2018-09-09T08:54:38.556Z,64.05
2018-09-09T08:55:38.802Z,63.47
2018-09-09T08:56:39.047Z,62.41
2018-09-09T08:57:39.306Z,62.70
2018-09-09T08:58:39.512Z,61.83
2018-09-09T08:59:39.750Z,61.93
2018-09-09T09:00:39.984Z,62.02
2018-09-09T09:01:40.217Z,62.12
2018-09-09T09:02:40.449Z,62.31
2018-09-09T09:03:40.681Z,62.02
2018-09-09T09:04:40.914Z,62.41
2018-09-09T09:05:41.155Z,62.51
2018-09-09T09:06:41.385Z,62.79
2018-09-09T09:07:41.640Z,62.79
2018-09-09T09:08:41.857Z,63.28
2018-09-09T09:09:42.099Z,63.21
2018-09-09T09:10:42.332Z,61.77
2018-09-09T09:11:42.564Z,61.77
2018-09-09T09:12:42.798Z,62.05
2018-09-09T09:13:43.033Z,60.89
2018-09-09T09:14:43.340Z,62.60
2018-09-09T09:15:43.511Z,61.96
2018-09-09T09:16:43.742Z,61.57
2018-09-09T09:17:43.971Z,61.86
2018-09-09T09:18:44.283Z,61.19
2018-09-09T09:19:44.446Z,61.77
2018-09-09T09:20:44.886Z,60.99
2018-09-09T09:21:45.011Z,61.57
2018-09-09T09:22:45.139Z,61.22
2018-09-09T09:23:45.424Z,60.16
2018-09-09T09:24:45.635Z,59.38
2018-09-09T09:25:45.883Z,59.58
2018-09-09T09:26:46.130Z,60.64
2018-09-09T09:27:46.360Z,60.35
2018-09-09T09:28:46.624Z,60.25
2018-09-09T09:29:46.864Z,60.06
2018-09-09T09:30:47.129Z,59.60
2018-09-09T09:31:47.329Z,58.51
2018-09-09T09:32:47.570Z,58.35
2018-09-09T09:33:47.815Z,58.54
2018-09-09T09:34:48.050Z,58.93
2018-09-09T09:35:48.281Z,58.45
2018-09-09T09:36:48.513Z,57.67
2018-09-09T09:37:48.747Z,56.90
2018-09-09T09:38:48.982Z,57.19
2018-09-09T09:39:49.216Z,58.45
2018-09-09T09:40:49.451Z,57.57
2018-09-09T09:41:49.688Z,57.67
2018-09-09T09:42:49.921Z,58.03
2018-09-09T09:43:50.152Z,58.35
2018-09-09T09:44:50.393Z,58.45
2018-09-09T09:45:50.650Z,57.96
2018-09-09T09:46:50.910Z,58.28
2018-09-09T09:47:51.144Z,57.79
2018-09-09T09:48:51.377Z,57.51
2018-09-09T09:49:51.611Z,56.15
2018-09-09T09:50:51.847Z,57.03
2018-09-09T09:51:52.091Z,57.15
2018-09-09T09:52:52.335Z,57.12
2018-09-09T09:53:52.571Z,57.34
2018-09-09T09:54:52.811Z,56.86
2018-09-09T09:55:53.045Z,57.15
2018-09-09T09:56:53.277Z,57.34
2018-09-09T09:57:53.507Z,56.47
2018-09-09T09:58:53.776Z,57.24
2018-09-09T09:59:54.010Z,56.57
2018-09-09T10:00:54.243Z,56.28
2018-09-09T10:01:54.477Z,54.93
2018-09-09T10:02:54.726Z,56.18
2018-09-09T10:03:54.966Z,55.79
2018-09-09T10:04:55.209Z,55.70
2018-09-09T10:05:55.444Z,55.02
2018-09-09T10:06:55.682Z,54.27
2018-09-09T10:07:55.913Z,55.73
2018-09-09T10:08:56.149Z,54.95
2018-09-09T10:09:56.387Z,54.66
2018-09-09T10:10:56.621Z,55.24
2018-09-09T10:11:56.856Z,54.27
2018-09-09T10:12:57.092Z,54.47
2018-09-09T10:13:57.324Z,55.05
2018-09-09T10:14:57.598Z,55.36
2018-09-09T10:15:57.793Z,55.46
2018-09-09T10:16:58.036Z,54.01
2018-09-09T10:17:58.271Z,54.79
2018-09-09T10:18:58.526Z,54.69
2018-09-09T10:19:58.760Z,53.91
2018-09-09T10:20:58.996Z,54.79
2018-09-09T10:21:59.227Z,53.53
2018-09-09T10:22:59.480Z,53.33
2018-09-09T10:23:59.717Z,53.33
2018-09-09T10:24:59.957Z,53.33
2018-09-09T10:26:00.195Z,52.85
2018-09-09T10:27:00.430Z,53.91
2018-09-09T10:28:00.665Z,53.72
2018-09-09T10:29:00.898Z,53.81
2018-09-09T10:30:01.149Z,54.71
2018-09-09T10:31:01.361Z,53.75
2018-09-09T10:32:01.604Z,53.26
2018-09-09T10:33:01.839Z,52.39
2018-09-09T10:34:02.076Z,51.42
2018-09-09T10:35:02.313Z,51.62
2018-09-09T10:36:02.546Z,51.32
2018-09-09T10:37:02.791Z,51.84
2018-09-09T10:38:03.040Z,51.16
2018-09-09T10:39:03.293Z,51.06
2018-09-09T10:40:03.527Z,51.84
2018-09-09T10:41:03.761Z,50.96
2018-09-09T10:42:03.991Z,51.16
2018-09-09T10:43:04.229Z,50.70
2018-09-09T10:44:04.468Z,50.60
2018-09-09T10:45:04.701Z,50.50
2018-09-09T10:46:04.958Z,50.21
2018-09-09T10:47:05.208Z,49.24
2018-09-09T10:48:05.410Z,49.61
2018-09-09T10:49:05.647Z,50.38
2018-09-09T10:50:05.884Z,50.87
2018-09-09T10:51:06.119Z,52.29
2018-09-09T10:52:06.362Z,50.65
2018-09-09T10:53:06.609Z,50.74
2018-09-09T10:54:06.834Z,50.26
2018-09-09T10:55:07.093Z,50.29
2018-09-09T10:56:07.354Z,52.22
2018-09-09T10:57:07.596Z,50.96
2018-09-09T10:58:07.832Z,50.67
2018-09-09T10:59:08.069Z,50.38
2018-09-09T11:00:08.303Z,50.29
2018-09-09T11:01:08.538Z,50.48
2018-09-09T11:02:08.770Z,50.87
2018-09-09T11:03:09.004Z,50.48
2018-09-09T11:04:09.261Z,50.38
2018-09-09T11:05:09.561Z,50.41
2018-09-09T11:06:09.674Z,49.63
2018-09-09T11:07:09.953Z,49.63
2018-09-09T11:08:10.191Z,48.97
2018-09-09T11:09:10.427Z,48.10
2018-09-09T11:10:10.663Z,47.79
2018-09-09T11:11:10.898Z,49.15
2018-09-09T11:12:11.138Z,48.18
2018-09-09T11:13:11.378Z,49.27
2018-09-09T11:14:11.609Z,48.69
2018-09-09T11:15:11.848Z,48.20
2018-09-09T11:16:12.086Z,49.37
2018-09-09T11:17:12.335Z,49.07
2018-09-09T11:18:12.576Z,47.81
2018-09-09T11:19:12.803Z,47.81
2018-09-09T11:20:13.042Z,48.10
2018-09-09T11:21:13.288Z,47.81
2018-09-09T11:22:13.517Z,48.97
2018-09-09T11:23:13.755Z,49.24
2018-09-09T11:24:14.079Z,50.60
2018-09-09T11:25:14.232Z,49.92
2018-09-09T11:26:14.468Z,48.76
2018-09-09T11:27:14.705Z,48.95
2018-09-09T11:28:14.939Z,48.37
2018-09-09T11:29:15.182Z,47.69
2018-09-09T11:30:15.418Z,48.37
2018-09-09T11:31:15.661Z,49.24
2018-09-09T11:32:15.890Z,48.59
2018-09-09T11:33:16.130Z,47.62
2018-09-09T11:34:16.374Z,48.00
2018-09-09T11:35:17.414Z,47.81
2018-09-09T11:36:16.958Z,47.23
2018-09-09T11:37:17.154Z,48.10
2018-09-09T11:38:17.921Z,48.10
2018-09-09T11:39:17.657Z,47.33
2018-09-09T11:40:17.902Z,47.03
2018-09-09T11:41:18.136Z,47.91
2018-09-09T11:42:18.372Z,48.47
2018-09-09T11:43:18.611Z,47.98
2018-09-09T11:44:18.845Z,49.24
2018-09-09T11:45:19.089Z,48.47
2018-09-09T11:46:19.321Z,48.18
2018-09-09T11:47:19.575Z,47.72
2018-09-09T11:48:19.873Z,47.79
2018-09-09T11:49:20.015Z,48.20
2018-09-09T11:50:20.280Z,47.91
2018-09-09T11:51:23.432Z,47.13
2018-09-09T11:52:20.787Z,47.03
2018-09-09T11:53:21.126Z,46.55
2018-09-09T11:54:21.238Z,46.55
2018-09-09T11:55:21.551Z,46.09
2018-09-09T11:56:21.712Z,45.70
2018-09-09T11:57:21.972Z,46.16
2018-09-09T11:58:22.230Z,46.19
2018-09-09T11:59:22.562Z,46.58
2018-09-09T12:00:22.686Z,46.98
2018-09-09T12:01:22.929Z,46.21
2018-09-09T12:02:23.246Z,45.12
2018-09-09T12:03:23.386Z,46.09
2018-09-09T12:04:23.626Z,46.09
2018-09-09T12:05:23.879Z,44.64
2018-09-09T12:06:24.119Z,44.24
2018-09-09T12:07:24.391Z,43.76
2018-09-09T12:08:24.610Z,43.66
2018-09-09T12:09:25.440Z,46.09
2018-09-09T12:10:25.051Z,46.48
2018-09-09T12:11:25.283Z,46.38
2018-09-09T12:12:25.519Z,46.38
2018-09-09T12:13:25.767Z,47.96
2018-09-09T12:14:25.999Z,47.86
2018-09-09T12:15:26.235Z,47.08
2018-09-09T12:16:26.472Z,45.62
2018-09-09T12:17:26.707Z,46.01
2018-09-09T12:18:26.942Z,46.19
2018-09-09T12:19:27.180Z,46.19
2018-09-09T12:20:27.416Z,46.09
2018-09-09T12:21:27.659Z,46.67
2018-09-09T12:22:27.903Z,46.28
2018-09-09T12:23:28.134Z,46.28
2018-09-09T12:24:28.369Z,46.19
2018-09-09T12:25:31.435Z,46.38
2018-09-09T12:26:28.792Z,46.19
2018-09-09T12:27:29.030Z,47.25
2018-09-09T12:28:29.274Z,47.25
2018-09-09T12:29:29.518Z,47.86
2018-09-09T12:30:32.432Z,47.06
2018-09-09T12:31:30.039Z,46.96
2018-09-09T12:32:30.976Z,46.96
2018-09-09T12:33:30.530Z,46.60
2018-09-09T12:34:30.777Z,45.72
2018-09-09T12:35:31.011Z,45.53
2018-09-09T12:36:31.246Z,45.43
2018-09-09T12:37:31.515Z,46.23
2018-09-09T12:38:32.430Z,46.14
2018-09-09T12:39:32.040Z,44.78
2018-09-09T12:40:32.932Z,45.75
2018-09-09T12:41:32.541Z,44.85
2018-09-09T12:42:32.776Z,44.46
2018-09-09T12:43:33.950Z,43.78
2018-09-09T12:44:33.925Z,44.27
2018-09-09T12:45:33.412Z,44.95
2018-09-09T12:46:33.659Z,45.43
2018-09-09T12:47:33.891Z,44.56
2018-09-09T12:48:34.127Z,44.17
2018-09-09T12:49:34.385Z,44.95
2018-09-09T12:50:34.624Z,44.97
2018-09-09T12:51:34.856Z,44.78
2018-09-09T12:52:35.094Z,43.80
2018-09-09T12:53:35.929Z,43.90
2018-09-09T12:54:35.538Z,44.02
2018-09-09T12:55:35.804Z,43.41